Time;durP1;ratioP1;P1;durP2;ratioP2;P2;SDS_P1;SDS_P2;PMS_P1;PMS_P2;Temp;Humidity;BMP_temperature;BMP_pressure;BME280_temperature;BME280_humidity;BME280_pressure;Samples;Min_cycle;Max_cycle;Signal;HPM_P1;HPM_P2
2023/11/05 00:01:15;;;;;;;0.25;0.25;;;;;;;11.34;65.36;97831.09;4410939;32;32255;-87
2023/11/05 00:03:43;;;;;;;0.10;0.10;;;;;;;11.52;65.19;97820.87;4395367;32;33747;-90
2023/11/05 00:06:12;;;;;;;0.05;0.05;;;;;;;11.41;65.70;97826.19;4398925;32;33093;-90
2023/11/05 00:08:40;;;;;;;0.00;0.00;;;;;;;11.57;64.60;97829.28;4398268;32;32854;-90
2023/11/05 00:11:09;;;;;;;0.45;0.45;;;;;;;11.54;65.05;97825.09;4420865;32;32237;-91
2023/11/05 00:13:37;;;;;;;0.20;0.20;;;;;;;11.50;65.41;97828.94;4410374;32;34287;-92
2023/11/05 00:16:12;;;;;;;0.40;0.40;;;;;;;11.35;66.38;97824.03;4393626;32;33698;-92
2023/11/05 00:19:01;;;;;;;0.20;0.20;;;;;;;11.43;66.16;97830.38;4412342;32;33461;-91
2023/11/05 00:21:30;;;;;;;0.00;0.00;;;;;;;11.52;65.81;97831.44;4413281;32;32187;-89
2023/11/05 00:23:58;;;;;;;0.13;0.13;;;;;;;11.52;65.86;97834.94;4401742;32;32811;-90
2023/11/05 00:26:26;;;;;;;1.00;0.50;;;;;;;11.46;66.08;97835.44;4402838;32;32889;-91
2023/11/05 00:28:55;;;;;;;0.82;0.65;;;;;;;11.48;66.41;97835.28;4409672;32;32365;-91
2023/11/05 00:31:24;;;;;;;0.30;0.30;;;;;;;11.99;64.37;97830.34;4414163;32;32487;-90
2023/11/05 00:33:52;;;;;;;0.13;0.13;;;;;;;11.66;65.51;97833.00;4411882;32;33716;-89
2023/11/05 00:36:20;;;;;;;0.40;0.40;;;;;;;11.32;67.26;97821.63;4392238;32;32904;-90
2023/11/05 00:38:50;;;;;;;0.17;0.17;;;;;;;11.29;67.68;97817.41;4400431;32;33577;-90
2023/11/05 00:41:18;;;;;;;0.00;0.00;;;;;;;11.39;67.74;97823.63;4407110;32;32176;-92
2023/11/05 00:44:32;;;;;;;0.20;0.20;;;;;;;11.29;68.42;97828.81;4393778;32;34739;-90
2023/11/05 00:47:00;;;;;;;0.10;0.10;;;;;;;11.40;68.83;97837.72;4389604;32;33893;-90
2023/11/05 00:49:29;;;;;;;7.68;1.50;;;;;;;11.58;67.99;97824.84;4389226;32;33005;-89
2023/11/05 00:51:57;;;;;;;0.00;0.00;;;;;;;11.62;68.21;97810.41;4391844;32;32478;-90
2023/11/05 00:54:28;;;;;;;3.83;1.45;;;;;;;11.64;68.62;97814.63;4390799;32;32771;-90
2023/11/05 00:56:56;;;;;;;0.45;0.25;;;;;;;11.46;69.13;97822.22;4390492;32;32713;-90
2023/11/05 00:59:25;;;;;;;0.00;0.00;;;;;;;11.84;67.96;97813.06;4401737;32;33117;-90
2023/11/05 01:01:52;;;;;;;0.85;0.68;;;;;;;11.86;68.35;97813.75;4390181;32;32629;-90
2023/11/05 01:04:20;;;;;;;0.00;0.00;;;;;;;12.22;66.81;97814.41;4403027;32;33771;-90
2023/11/05 01:06:49;;;;;;;0.00;0.00;;;;;;;12.30;66.43;97812.81;4401968;32;33595;-90
2023/11/05 01:09:17;;;;;;;0.00;0.00;;;;;;;12.33;65.64;97811.72;4389917;32;33245;-90
2023/11/05 01:11:47;;;;;;;0.10;0.10;;;;;;;11.99;67.11;97813.63;4389950;32;32313;-89
2023/11/05 01:14:15;;;;;;;0.10;0.10;;;;;;;12.09;67.56;97803.12;4393892;32;32647;-89
2023/11/05 01:16:43;;;;;;;0.00;0.00;;;;;;;12.18;67.28;97807.69;4413476;32;32902;-88
2023/11/05 01:19:15;;;;;;;0.00;0.00;;;;;;;12.25;67.21;97815.00;4389327;32;34529;-89
2023/11/05 01:21:44;;;;;;;3.75;0.80;;;;;;;12.12;67.30;97800.25;4389263;32;32903;-90
2023/11/05 01:24:12;;;;;;;0.00;0.00;;;;;;;12.19;67.78;97810.19;4408267;32;33687;-90
2023/11/05 01:26:40;;;;;;;1.05;0.60;;;;;;;12.12;68.02;97824.91;4420945;32;34755;-90
2023/11/05 01:29:09;;;;;;;2.08;1.90;;;;;;;12.21;67.39;97810.09;4394668;32;32675;-89
2023/11/05 01:31:37;;;;;;;0.00;0.00;;;;;;;12.20;67.61;97816.31;4399817;32;31777;-90
2023/11/05 01:34:06;;;;;;;1.75;0.75;;;;;;;12.03;67.56;97802.69;4386041;32;32935;-89
2023/11/05 01:36:34;;;;;;;0.47;0.47;;;;;;;12.00;67.70;97794.97;4406225;32;32964;-88
2023/11/05 01:39:02;;;;;;;0.30;0.30;;;;;;;12.11;67.45;97788.00;4388396;32;32940;-88
2023/11/05 01:41:30;;;;;;;0.00;0.00;;;;;;;12.15;67.52;97781.47;4419140;32;32455;-88
2023/11/05 01:43:58;;;;;;;0.73;0.70;;;;;;;12.34;66.20;97764.91;4407099;32;32747;-88
2023/11/05 01:46:26;;;;;;;0.25;0.25;;;;;;;12.55;65.16;97760.47;4412529;32;33659;-87
2023/11/05 01:48:57;;;;;;;0.08;0.08;;;;;;;12.44;65.50;97761.38;4408389;32;32813;-87
2023/11/05 01:51:26;;;;;;;0.00;0.00;;;;;;;12.17;66.26;97766.31;4408953;32;32723;-90
2023/11/05 01:53:55;;;;;;;0.13;0.10;;;;;;;11.89;67.30;97760.63;4403127;32;33850;-88
2023/11/05 01:56:25;;;;;;;0.13;0.13;;;;;;;11.96;67.28;97761.84;4379994;32;33040;-89
2023/11/05 01:58:53;;;;;;;0.28;0.28;;;;;;;11.96;67.56;97761.84;4396287;32;32775;-88
2023/11/05 02:01:23;;;;;;;0.37;0.37;;;;;;;11.90;67.90;97761.47;4408943;32;32023;-88
2023/11/05 02:03:51;;;;;;;0.47;0.47;;;;;;;12.08;67.01;97749.41;4404514;32;34655;-88
2023/11/05 02:06:19;;;;;;;0.00;0.00;;;;;;;11.92;67.50;97752.47;4419331;32;33011;-90
2023/11/05 02:08:47;;;;;;;0.30;0.30;;;;;;;11.99;67.66;97750.16;4409534;32;32685;-91
2023/11/05 02:11:15;;;;;;;0.65;0.65;;;;;;;12.21;67.00;97744.78;4408687;32;32791;-90
2023/11/05 02:13:51;;;;;;;0.37;0.37;;;;;;;12.04;67.50;97755.91;4395996;32;32800;-90
2023/11/05 02:16:21;;;;;;;0.17;0.17;;;;;;;12.08;67.49;97759.13;4400563;32;32952;-89
2023/11/05 02:18:49;;;;;;;1.33;1.23;;;;;;;12.47;66.08;97761.09;4410801;32;32537;-87
2023/11/05 02:21:27;;;;;;;0.25;0.25;;;;;;;12.27;66.71;97756.66;4417717;32;32217;-88
2023/11/05 02:23:55;;;;;;;1.20;1.10;;;;;;;12.63;65.28;97754.50;4421203;32;33115;-87
2023/11/05 02:26:24;;;;;;;2.65;1.62;;;;;;;12.37;65.49;97746.97;4409473;32;33322;-87
2023/11/05 02:28:52;;;;;;;2.92;1.87;;;;;;;12.14;66.81;97740.09;4422649;32;34240;-89
2023/11/05 02:31:20;;;;;;;0.20;0.20;;;;;;;12.02;67.25;97744.63;4403350;32;32401;-87
2023/11/05 02:33:48;;;;;;;0.50;0.50;;;;;;;12.28;66.63;97742.44;4411305;32;34663;-88
2023/11/05 02:36:16;;;;;;;0.20;0.20;;;;;;;12.31;65.95;97734.25;4415823;32;33806;-87
2023/11/05 02:38:44;;;;;;;2.42;0.52;;;;;;;12.25;66.65;97729.50;4410803;32;32414;-87
2023/11/05 02:41:13;;;;;;;0.35;0.35;;;;;;;12.28;66.72;97734.50;4422280;32;32479;-87
2023/11/05 02:43:41;;;;;;;0.00;0.00;;;;;;;12.27;66.96;97728.38;4414717;32;33073;-87
2023/11/05 02:46:08;;;;;;;0.55;0.43;;;;;;;12.07;67.02;97731.84;4411201;32;33383;-88
2023/11/05 02:48:36;;;;;;;1.12;0.70;;;;;;;12.29;67.18;97738.81;4424296;32;32986;-90
2023/11/05 02:51:04;;;;;;;0.70;0.37;;;;;;;12.56;65.74;97727.72;4409902;32;32896;-90
2023/11/05 02:53:32;;;;;;;0.30;0.30;;;;;;;12.57;65.31;97718.81;4426244;32;33933;-89
2023/11/05 02:56:03;;;;;;;0.57;0.57;;;;;;;12.50;66.04;97712.38;4421707;32;33038;-90
2023/11/05 02:58:30;;;;;;;0.20;0.20;;;;;;;12.39;66.49;97705.34;4416547;32;32766;-90
2023/11/05 03:00:58;;;;;;;0.50;0.22;;;;;;;12.21;66.46;97707.72;4430177;32;32422;-89
2023/11/05 03:03:27;;;;;;;0.80;0.60;;;;;;;12.16;67.27;97711.72;4416878;32;33846;-89
2023/11/05 03:05:57;;;;;;;0.15;0.15;;;;;;;12.10;67.62;97710.41;4423769;32;32959;-90
2023/11/05 03:08:24;;;;;;;1.00;1.00;;;;;;;12.12;68.28;97705.00;4404391;32;33037;-89
2023/11/05 03:10:54;;;;;;;0.55;0.55;;;;;;;12.15;68.15;97692.34;4416254;32;33245;-89
2023/11/05 03:13:22;;;;;;;0.15;0.15;;;;;;;12.29;67.89;97677.97;4417649;32;34271;-89
2023/11/05 03:15:50;;;;;;;0.00;0.00;;;;;;;12.11;68.38;97664.50;4418709;32;34037;-89
2023/11/05 03:18:20;;;;;;;0.65;0.65;;;;;;;12.14;67.76;97658.94;4403937;32;32850;-89
2023/11/05 03:20:49;;;;;;;0.37;0.30;;;;;;;12.15;68.30;97633.31;4406382;32;32862;-89
2023/11/05 03:23:18;;;;;;;0.73;0.73;;;;;;;12.26;67.82;97631.44;4431189;32;34063;-89
2023/11/05 03:25:46;;;;;;;0.30;0.28;;;;;;;12.25;67.90;97628.94;4401664;32;33807;-89
2023/11/05 03:28:13;;;;;;;0.37;0.37;;;;;;;12.19;68.08;97629.44;4397300;32;32293;-89
2023/11/05 03:30:41;;;;;;;0.10;0.10;;;;;;;12.47;67.23;97627.94;4409235;32;32297;-89
2023/11/05 03:33:09;;;;;;;0.17;0.17;;;;;;;12.26;68.32;97633.25;4394667;32;32628;-90
2023/11/05 03:35:37;;;;;;;0.37;0.37;;;;;;;12.13;68.68;97646.69;4415653;32;33554;-89
2023/11/05 03:38:05;;;;;;;0.65;0.47;;;;;;;12.01;70.18;97643.28;4422554;32;32752;-89
2023/11/05 03:40:33;;;;;;;2.15;0.08;;;;;;;12.32;69.08;97640.66;4401541;32;32286;-89
2023/11/05 03:43:01;;;;;;;0.30;0.30;;;;;;;12.03;69.65;97633.38;4415099;32;34368;-90
2023/11/05 03:45:29;;;;;;;0.32;0.32;;;;;;;12.04;70.20;97628.94;4409048;32;33420;-89
2023/11/05 03:48:00;;;;;;;0.57;0.57;;;;;;;11.84;71.96;97633.25;4410247;32;32877;-89
2023/11/05 03:50:29;;;;;;;0.45;0.32;;;;;;;12.23;70.24;97622.94;4408198;32;32161;-89
2023/11/05 03:52:58;;;;;;;0.08;0.08;;;;;;;12.32;69.75;97603.62;4402934;32;35286;-89
2023/11/05 03:55:26;;;;;;;0.30;0.30;;;;;;;12.30;70.02;97602.94;4404430;32;33172;-90
2023/11/05 03:57:54;;;;;;;4.85;1.75;;;;;;;12.42;69.20;97585.97;4410973;32;33791;-87
2023/11/05 04:00:22;;;;;;;0.40;0.40;;;;;;;12.49;68.94;97594.25;4391140;32;32355;-88
2023/11/05 04:02:50;;;;;;;0.50;0.50;;;;;;;12.44;68.90;97602.59;4424150;32;34153;-88
2023/11/05 04:05:18;;;;;;;0.10;0.10;;;;;;;12.23;69.38;97615.81;4415334;32;33422;-89
2023/11/05 04:07:46;;;;;;;0.80;0.73;;;;;;;12.16;69.86;97593.53;4422427;32;33118;-89
2023/11/05 04:10:16;;;;;;;0.57;0.57;;;;;;;11.74;71.76;97592.66;4422608;32;32510;-89
2023/11/05 04:12:43;;;;;;;4.32;0.80;;;;;;;11.78;71.24;97583.50;4422266;32;33129;-88
2023/11/05 04:15:11;;;;;;;1.62;1.50;;;;;;;11.87;71.17;97569.53;4422578;32;32630;-89
2023/11/05 04:17:39;;;;;;;0.85;0.82;;;;;;;12.35;69.51;97545.16;4401941;32;33609;-88
2023/11/05 04:20:08;;;;;;;0.50;0.50;;;;;;;12.00;70.11;97538.41;4430642;32;33172;-89
2023/11/05 04:22:36;;;;;;;0.40;0.40;;;;;;;11.98;70.66;97532.44;4422997;32;34533;-89
2023/11/05 04:25:06;;;;;;;0.43;0.43;;;;;;;12.09;70.43;97522.75;4429422;32;33831;-89
2023/11/05 04:27:34;;;;;;;0.52;0.52;;;;;;;12.11;70.17;97516.34;4410285;32;34361;-89
2023/11/05 04:30:01;;;;;;;0.68;0.68;;;;;;;12.35;69.14;97502.81;4425618;32;32160;-89
2023/11/05 04:32:30;;;;;;;1.15;1.10;;;;;;;12.31;68.30;97504.03;4411381;32;32498;-88
2023/11/05 04:34:58;;;;;;;0.90;0.57;;;;;;;12.14;69.90;97502.00;4421552;32;34352;-89
2023/11/05 04:37:27;;;;;;;0.98;0.98;;;;;;;12.28;69.14;97491.06;4406368;32;33097;-89
2023/11/05 04:39:59;;;;;;;0.03;0.03;;;;;;;12.17;69.80;97485.87;4386550;32;32375;-89
2023/11/05 04:42:28;;;;;;;0.03;0.03;;;;;;;11.90;71.25;97491.75;4422453;32;32860;-89
2023/11/05 04:44:58;;;;;;;0.73;0.55;;;;;;;11.88;71.48;97497.19;4420481;32;34142;-89
2023/11/05 04:47:25;;;;;;;0.45;0.45;;;;;;;12.27;69.88;97489.41;4423504;32;32978;-88
2023/11/05 04:49:53;;;;;;;1.55;1.10;;;;;;;12.35;69.16;97473.69;4410135;32;34199;-89
2023/11/05 04:52:23;;;;;;;1.08;0.98;;;;;;;12.13;69.97;97463.31;4414482;32;34515;-89
2023/11/05 04:54:50;;;;;;;1.55;1.30;;;;;;;12.15;69.75;97464.00;4404556;32;32935;-89
2023/11/05 04:57:18;;;;;;;2.35;0.75;;;;;;;11.96;70.86;97448.91;4409243;32;32921;-89
2023/11/05 04:59:46;;;;;;;3.70;1.08;;;;;;;12.14;70.03;97449.94;4431822;32;33325;-89
2023/11/05 05:02:14;;;;;;;0.30;0.30;;;;;;;11.98;70.52;97453.09;4403945;32;33963;-88
2023/11/05 05:04:42;;;;;;;0.05;0.05;;;;;;;12.11;70.36;97452.03;4408845;32;34131;-87
2023/11/05 05:07:10;;;;;;;10.48;1.30;;;;;;;12.22;69.34;97451.94;4409918;32;32559;-87
2023/11/05 05:09:38;;;;;;;0.00;0.00;;;;;;;11.87;71.15;97444.41;4413095;32;32968;-87
2023/11/05 05:12:06;;;;;;;0.62;0.55;;;;;;;11.79;71.73;97443.25;4400763;32;31796;-86
2023/11/05 05:14:34;;;;;;;0.35;0.30;;;;;;;12.09;70.22;97461.91;4416643;32;34185;-86
2023/11/05 05:17:05;;;;;;;1.15;0.73;;;;;;;11.92;70.75;97464.22;4422081;32;32826;-90
2023/11/05 05:19:33;;;;;;;0.55;0.55;;;;;;;12.30;69.68;97463.53;4421946;32;32314;-89
2023/11/05 05:22:02;;;;;;;0.22;0.22;;;;;;;12.29;69.65;97467.09;4409566;32;32804;-89
2023/11/05 05:24:30;;;;;;;0.22;0.22;;;;;;;12.17;69.67;97467.38;4410456;32;32838;-89
2023/11/05 05:26:58;;;;;;;0.20;0.20;;;;;;;12.40;68.99;97442.38;4416854;32;31967;-90
2023/11/05 05:29:26;;;;;;;0.00;0.00;;;;;;;11.95;70.41;97453.34;4423870;32;32381;-88
2023/11/05 05:31:53;;;;;;;0.32;0.32;;;;;;;11.66;71.25;97442.59;4421763;32;32820;-88
2023/11/05 05:34:21;;;;;;;3.22;1.77;;;;;;;11.70;71.26;97441.38;4423494;32;32941;-88
2023/11/05 05:36:49;;;;;;;0.93;0.93;;;;;;;11.94;70.70;97462.25;4410202;32;34880;-88
2023/11/05 05:39:17;;;;;;;0.85;0.55;;;;;;;11.74;71.34;97456.00;4424977;32;31543;-88
2023/11/05 05:41:46;;;;;;;0.00;0.00;;;;;;;11.60;71.84;97468.75;4399907;32;32821;-88
2023/11/05 05:44:14;;;;;;;0.10;0.10;;;;;;;11.62;71.33;97462.34;4425167;32;33423;-88
2023/11/05 05:46:42;;;;;;;0.08;0.08;;;;;;;11.75;71.09;97459.50;4423423;32;33951;-88
2023/11/05 05:49:11;;;;;;;0.22;0.22;;;;;;;12.08;69.86;97441.72;4408922;32;33126;-89
2023/11/05 05:51:39;;;;;;;2.85;0.50;;;;;;;12.30;69.29;97431.75;4409719;32;32715;-89
2023/11/05 05:54:07;;;;;;;0.47;0.47;;;;;;;12.28;69.29;97409.03;4435655;32;32918;-87
2023/11/05 05:56:35;;;;;;;0.65;0.35;;;;;;;12.10;69.78;97400.09;4408846;32;33524;-87
2023/11/05 05:59:03;;;;;;;0.10;0.10;;;;;;;11.58;71.82;97364.94;4406693;32;31905;-87
2023/11/05 06:01:31;;;;;;;0.80;0.45;;;;;;;11.53;72.32;97365.34;4423174;32;34264;-87
2023/11/05 06:04:00;;;;;;;0.10;0.10;;;;;;;11.73;71.42;97359.19;4424286;32;34210;-88
2023/11/05 06:06:28;;;;;;;1.27;0.62;;;;;;;11.42;72.59;97360.97;4398332;32;32766;-87
2023/11/05 06:08:55;;;;;;;0.75;0.43;;;;;;;11.66;71.96;97376.53;4397845;32;32185;-88
2023/11/05 06:11:24;;;;;;;0.08;0.08;;;;;;;11.34;73.43;97378.44;4411077;32;32690;-89
2023/11/05 06:13:52;;;;;;;0.15;0.13;;;;;;;11.41;72.98;97372.53;4419519;32;33896;-89
2023/11/05 06:16:21;;;;;;;0.37;0.37;;;;;;;11.74;72.04;97375.88;4416059;32;32820;-89
2023/11/05 06:18:49;;;;;;;0.47;0.47;;;;;;;11.05;74.32;97379.13;4416970;32;32358;-89
2023/11/05 06:21:19;;;;;;;0.20;0.20;;;;;;;11.07;74.97;97397.50;4419439;32;32609;-89
2023/11/05 06:23:47;;;;;;;0.65;0.65;;;;;;;11.43;73.53;97386.44;4438218;32;34038;-88
2023/11/05 06:26:15;;;;;;;0.85;0.82;;;;;;;11.45;73.94;97367.81;4403030;32;32299;-88
2023/11/05 06:28:44;;;;;;;0.10;0.10;;;;;;;12.26;70.03;97345.69;4394767;32;32644;-88
2023/11/05 06:31:11;;;;;;;2.10;0.43;;;;;;;11.72;72.21;97320.47;4423779;32;33881;-87
2023/11/05 06:33:39;;;;;;;0.65;0.65;;;;;;;11.51;73.07;97296.78;4403224;32;177765;-88
2023/11/05 06:36:08;;;;;;;0.68;0.65;;;;;;;11.12;75.72;97321.34;4392876;32;33374;-88
2023/11/05 06:38:36;;;;;;;0.00;0.00;;;;;;;11.68;72.76;97311.16;4423351;32;32069;-88
2023/11/05 06:41:04;;;;;;;0.52;0.22;;;;;;;11.78;72.76;97284.75;4412818;32;32352;-88
2023/11/05 06:43:32;;;;;;;0.00;0.00;;;;;;;11.41;73.49;97269.47;4406335;32;33923;-89
2023/11/05 06:46:00;;;;;;;0.20;0.20;;;;;;;11.57;73.21;97286.63;4406017;32;32921;-89
2023/11/05 06:48:28;;;;;;;0.00;0.00;;;;;;;11.52;74.12;97282.56;4428398;32;32333;-89
2023/11/05 06:50:57;;;;;;;0.22;0.22;;;;;;;11.24;75.30;97272.75;4407986;32;32759;-87
2023/11/05 06:53:25;;;;;;;0.35;0.15;;;;;;;11.53;74.26;97263.09;4421776;32;33651;-89
2023/11/05 06:55:53;;;;;;;0.00;0.00;;;;;;;11.71;73.34;97244.78;4405492;32;32868;-86
2023/11/05 06:58:20;;;;;;;0.10;0.10;;;;;;;11.82;73.18;97241.25;4435418;32;33341;-89
2023/11/05 07:00:48;;;;;;;0.10;0.10;;;;;;;11.59;73.98;97235.31;4424413;32;33609;-88
2023/11/05 07:03:17;;;;;;;0.10;0.10;;;;;;;11.91;72.70;97213.94;4423453;32;32899;-88
2023/11/05 07:05:46;;;;;;;1.37;0.30;;;;;;;11.61;73.73;97211.37;4415042;32;32778;-88
2023/11/05 07:08:13;;;;;;;0.93;0.45;;;;;;;11.46;75.17;97214.41;4406104;32;33523;-86
2023/11/05 07:10:41;;;;;;;0.20;0.20;;;;;;;11.67;74.43;97200.25;4418642;32;33889;-88
2023/11/05 07:13:10;;;;;;;0.25;0.25;;;;;;;11.48;75.02;97193.12;4406622;32;35010;-87
2023/11/05 07:15:38;;;;;;;0.10;0.10;;;;;;;11.96;72.78;97200.31;4424658;32;33847;-87
2023/11/05 07:18:06;;;;;;;0.30;0.30;;;;;;;11.59;75.20;97197.50;4397932;32;32278;-88
2023/11/05 07:20:36;;;;;;;0.62;0.30;;;;;;;12.05;73.29;97200.31;4415230;32;32591;-87
2023/11/05 07:23:03;;;;;;;0.17;0.17;;;;;;;12.20;72.87;97184.88;4413513;32;33268;-87
2023/11/05 07:25:31;;;;;;;0.20;0.20;;;;;;;12.02;73.65;97184.75;4423158;32;33729;-87
2023/11/05 07:27:59;;;;;;;0.10;0.10;;;;;;;12.05;73.56;97165.09;4409778;32;32940;-85
2023/11/05 07:30:27;;;;;;;0.25;0.20;;;;;;;11.95;73.70;97175.69;4409493;32;34315;-85
2023/11/05 07:32:55;;;;;;;0.05;0.05;;;;;;;12.19;72.92;97177.88;4409828;32;34126;-85
2023/11/05 07:35:23;;;;;;;2.60;0.50;;;;;;;12.24;73.14;97172.19;4421322;32;34561;-85
2023/11/05 07:37:51;;;;;;;1.15;0.68;;;;;;;12.47;72.25;97165.59;4402085;32;32367;-85
2023/11/05 07:40:19;;;;;;;0.10;0.10;;;;;;;12.15;73.13;97163.28;4414800;32;32658;-85
2023/11/05 07:42:47;;;;;;;1.35;1.02;;;;;;;12.18;73.05;97162.16;4412760;32;34730;-86
2023/11/05 07:45:17;;;;;;;0.13;0.13;;;;;;;12.52;72.04;97142.16;4437683;32;32930;-85
2023/11/05 07:47:45;;;;;;;0.28;0.20;;;;;;;12.08;73.93;97158.69;4420865;32;32281;-85
2023/11/05 07:50:14;;;;;;;0.00;0.00;;;;;;;12.24;73.61;97151.00;4407725;32;33784;-86
2023/11/05 07:52:42;;;;;;;1.45;0.43;;;;;;;12.53;72.05;97151.81;4434603;32;34415;-85
2023/11/05 07:55:11;;;;;;;0.20;0.20;;;;;;;12.35;73.06;97144.75;4422976;32;32952;-85
2023/11/05 07:57:40;;;;;;;0.32;0.32;;;;;;;12.53;72.17;97145.66;4408947;32;32074;-85
2023/11/05 08:00:15;;;;;;;0.32;0.32;;;;;;;12.23;73.76;97144.06;4421347;32;33031;-85
2023/11/05 08:02:47;;;;;;;0.00;0.00;;;;;;;12.57;72.34;97142.56;4407852;32;34452;-87
2023/11/05 08:05:15;;;;;;;0.40;0.40;;;;;;;12.77;71.83;97131.91;4410890;32;31471;-85
2023/11/05 08:07:44;;;;;;;0.05;0.05;;;;;;;12.65;72.46;97128.63;4415515;32;32276;-85
2023/11/05 08:10:13;;;;;;;0.00;0.00;;;;;;;12.79;71.96;97133.44;4420911;32;32624;-84
2023/11/05 08:12:44;;;;;;;3.03;0.65;;;;;;;12.71;72.26;97127.19;4422628;32;33366;-85
2023/11/05 08:15:21;;;;;;;0.28;0.28;;;;;;;12.69;72.81;97156.47;4407196;32;34439;-85
2023/11/05 08:17:49;;;;;;;0.98;0.15;;;;;;;12.71;72.95;97153.69;4403676;32;33614;-86
2023/11/05 08:20:18;;;;;;;0.62;0.62;;;;;;;12.99;71.33;97151.88;4413300;32;32819;-85
2023/11/05 08:22:46;;;;;;;2.28;0.85;;;;;;;12.82;72.05;97162.28;4434776;32;34709;-85
2023/11/05 08:25:14;;;;;;;0.52;0.30;;;;;;;12.86;72.10;97173.41;4424957;32;32720;-88
2023/11/05 08:27:42;;;;;;;0.62;0.62;;;;;;;12.71;73.17;97161.62;4402928;32;31882;-85
2023/11/05 08:30:11;;;;;;;0.37;0.37;;;;;;;12.99;71.62;97149.25;4434778;32;32817;-85
2023/11/05 08:32:40;;;;;;;1.67;1.20;;;;;;;12.53;73.47;97146.50;4423080;32;33477;-86
2023/11/05 08:35:09;;;;;;;0.80;0.77;;;;;;;12.62;73.66;97136.00;4406291;32;32880;-86
2023/11/05 08:37:37;;;;;;;0.10;0.10;;;;;;;12.56;73.98;97118.91;4416232;32;32428;-85
2023/11/05 08:40:09;;;;;;;0.70;0.70;;;;;;;12.69;73.80;97114.13;4420043;32;33667;-86
2023/11/05 08:42:38;;;;;;;0.05;0.05;;;;;;;12.93;72.88;97103.00;4403198;32;33194;-86
2023/11/05 08:45:06;;;;;;;0.10;0.10;;;;;;;13.04;72.04;97094.84;4408999;32;33828;-86
2023/11/05 08:47:35;;;;;;;0.30;0.22;;;;;;;12.90;72.74;97097.97;4423180;32;33457;-86
2023/11/05 08:50:06;;;;;;;0.10;0.10;;;;;;;12.87;73.30;97086.88;4409281;32;33542;-87
2023/11/05 08:52:34;;;;;;;1.48;0.47;;;;;;;12.85;73.31;97094.94;4416562;32;33047;-86
2023/11/05 08:55:04;;;;;;;0.30;0.30;;;;;;;12.96;72.43;97100.06;4435927;32;34530;-86
2023/11/05 08:57:32;;;;;;;3.20;1.12;;;;;;;12.97;72.84;97085.84;4409182;32;33068;-87
2023/11/05 09:00:00;;;;;;;0.00;0.00;;;;;;;13.12;72.51;97082.69;4402969;32;32656;-91
2023/11/05 09:02:28;;;;;;;0.15;0.15;;;;;;;13.10;71.99;97072.22;4403123;32;32676;-89
2023/11/05 09:04:57;;;;;;;0.20;0.20;;;;;;;12.91;72.91;97072.31;4409578;32;33053;-91
2023/11/05 09:07:25;;;;;;;0.22;0.22;;;;;;;12.91;72.47;97086.41;4410686;32;33416;-88
2023/11/05 09:09:53;;;;;;;0.20;0.20;;;;;;;13.07;72.77;97081.31;4407905;32;32770;-87
2023/11/05 09:12:22;;;;;;;0.40;0.40;;;;;;;13.12;72.13;97094.09;4425872;32;32543;-87
2023/11/05 09:14:50;;;;;;;0.45;0.45;;;;;;;13.46;71.33;97109.38;4415967;32;33836;-87
2023/11/05 09:17:18;;;;;;;0.73;0.68;;;;;;;13.25;71.93;97202.44;4400474;32;32454;-87
2023/11/05 09:19:48;;;;;;;0.62;0.62;;;;;;;13.63;70.75;97278.28;4404533;32;32605;-87
2023/11/05 09:22:16;;;;;;;0.20;0.20;;;;;;;13.62;70.90;97206.81;4388059;32;33000;-87
2023/11/05 09:24:46;;;;;;;0.10;0.10;;;;;;;13.49;71.09;97196.56;4399851;32;32966;-87
2023/11/05 09:27:13;;;;;;;1.00;0.93;;;;;;;13.75;70.71;97223.19;4400797;32;33384;-88
2023/11/05 09:29:41;;;;;;;0.55;0.40;;;;;;;13.71;70.64;97205.91;4410763;32;33197;-88
2023/11/05 09:32:09;;;;;;;0.15;0.13;;;;;;;13.71;70.48;97123.69;4419703;32;33982;-87
2023/11/05 09:34:37;;;;;;;0.68;0.60;;;;;;;13.79;70.17;97087.50;4386669;32;32365;-88
2023/11/05 09:37:05;;;;;;;0.73;0.32;;;;;;;13.74;71.16;97038.56;4405766;32;32070;-87
2023/11/05 09:39:33;;;;;;;0.40;0.40;;;;;;;13.55;71.77;97016.53;4389569;32;32806;-88
2023/11/05 09:42:00;;;;;;;0.20;0.20;;;;;;;13.26;72.64;97027.38;4400339;32;33651;-88
2023/11/05 09:44:28;;;;;;;0.40;0.40;;;;;;;13.23;72.36;97040.09;4400997;32;34307;-88
2023/11/05 09:47:01;;;;;;;2.17;0.90;;;;;;;13.17;73.45;97033.56;4374163;32;32218;-88
2023/11/05 09:49:29;;;;;;;2.15;1.00;;;;;;;12.84;74.48;96990.00;4414838;32;32633;-87
2023/11/05 09:51:59;;;;;;;0.43;0.43;;;;;;;12.86;74.30;96982.72;4414477;32;33786;-87
2023/11/05 09:54:27;;;;;;;0.30;0.30;;;;;;;12.71;75.26;96978.94;4398466;32;33754;-89
2023/11/05 09:56:55;;;;;;;0.22;0.22;;;;;;;12.77;74.98;97012.75;4389699;32;32366;-88
2023/11/05 09:59:24;;;;;;;0.17;0.17;;;;;;;12.97;74.55;96985.19;4398259;32;32604;-88
2023/11/05 10:01:53;;;;;;;0.75;0.68;;;;;;;12.92;75.01;96934.47;4413602;32;32858;-88
2023/11/05 10:04:22;;;;;;;0.20;0.20;;;;;;;12.81;75.15;96903.75;4405344;32;33958;-87
2023/11/05 10:06:49;;;;;;;0.22;0.22;;;;;;;12.43;76.72;96939.25;4399039;32;32515;-88
2023/11/05 10:09:17;;;;;;;0.68;0.68;;;;;;;12.62;76.19;96969.25;4389132;32;32740;-87
2023/11/05 10:11:45;;;;;;;0.08;0.08;;;;;;;12.78;75.53;96982.66;4404469;32;34760;-91
2023/11/05 10:14:14;;;;;;;0.03;0.03;;;;;;;12.44;76.72;97017.69;4409400;32;32846;-90
2023/11/05 10:16:42;;;;;;;0.47;0.40;;;;;;;12.48;76.60;97032.28;4395795;32;33173;-90
2023/11/05 10:19:13;;;;;;;0.10;0.10;;;;;;;13.05;74.76;96950.84;4416215;32;33754;-91
2023/11/05 10:21:42;;;;;;;0.20;0.20;;;;;;;13.21;74.07;96944.00;4412416;32;33872;-91
2023/11/05 10:24:12;;;;;;;0.70;0.70;;;;;;;12.76;75.15;97009.28;4393647;32;32832;-91
2023/11/05 10:26:40;;;;;;;1.12;1.00;;;;;;;12.59;75.46;96964.28;4397056;32;32567;-91
2023/11/05 10:29:09;;;;;;;0.10;0.10;;;;;;;12.99;74.34;96924.94;4391618;32;32876;-91
2023/11/05 10:31:38;;;;;;;0.30;0.30;;;;;;;12.80;75.25;96988.63;4414036;32;33172;-91
2023/11/05 10:34:08;;;;;;;3.12;0.93;;;;;;;12.86;75.36;96997.78;4402364;32;33719;-90
2023/11/05 10:36:36;;;;;;;0.10;0.10;;;;;;;12.71;75.58;96987.72;4418348;32;32247;-91
2023/11/05 10:39:05;;;;;;;2.83;2.10;;;;;;;12.87;75.23;96988.88;4392893;32;33021;-91
2023/11/05 10:41:33;;;;;;;1.25;1.25;;;;;;;13.24;74.09;96955.13;4419625;32;34450;-91
2023/11/05 10:44:05;;;;;;;0.20;0.17;;;;;;;13.39;74.00;96963.41;4388633;32;33046;-91
2023/11/05 10:46:34;;;;;;;0.15;0.15;;;;;;;13.10;74.66;96986.59;4397738;32;33710;-91
2023/11/05 10:49:02;;;;;;;0.40;0.15;;;;;;;13.13;75.18;97005.69;4385088;32;34233;-91
2023/11/05 10:51:32;;;;;;;1.55;0.55;;;;;;;13.11;75.05;97017.44;4409083;32;33229;-91
2023/11/05 10:54:01;;;;;;;0.30;0.30;;;;;;;13.37;74.03;97013.06;4397462;32;32741;-90
2023/11/05 10:56:34;;;;;;;2.00;0.80;;;;;;;13.69;73.13;97011.66;4394837;32;32104;-91
2023/11/05 10:59:02;;;;;;;1.25;1.05;;;;;;;13.83;72.48;97017.25;4403501;32;31899;-91
2023/11/05 11:01:31;;;;;;;2.55;0.85;;;;;;;13.86;71.89;97018.72;4421623;32;33851;-91
2023/11/05 11:04:04;;;;;;;0.20;0.20;;;;;;;13.35;74.21;97023.00;4415893;32;33066;-90
2023/11/05 11:06:33;;;;;;;0.20;0.20;;;;;;;13.73;72.89;97023.63;4404222;32;34107;-91
2023/11/05 11:09:08;;;;;;;1.65;0.90;;;;;;;13.85;72.50;97006.47;4395933;32;32688;-91
2023/11/05 11:11:39;;;;;;;0.10;0.10;;;;;;;13.75;71.99;96988.00;4398638;32;33113;-91
2023/11/05 11:14:08;;;;;;;0.10;0.10;;;;;;;13.86;71.84;96984.25;4404188;32;33599;-91
2023/11/05 11:16:39;;;;;;;0.00;0.00;;;;;;;13.99;71.96;96997.94;4409089;32;32782;-91
2023/11/05 11:19:09;;;;;;;0.20;0.20;;;;;;;13.82;72.76;96996.19;4411699;32;33931;-90
2023/11/05 11:21:50;;;;;;;1.02;0.28;;;;;;;14.13;71.50;96998.34;4409845;32;32831;-91
2023/11/05 11:27:14;;;;;;;0.47;0.47;;;;;;;14.31;71.12;96999.94;4419185;32;32482;-90
2023/11/05 11:29:42;;;;;;;0.20;0.20;;;;;;;13.99;72.53;97024.47;4415268;32;32687;-90
2023/11/05 11:32:11;;;;;;;0.28;0.28;;;;;;;13.97;72.49;97050.31;4419407;32;33071;-91
2023/11/05 11:34:44;;;;;;;0.43;0.43;;;;;;;13.84;73.65;97068.47;4402258;32;32780;-90
2023/11/05 11:37:13;;;;;;;0.22;0.10;;;;;;;14.22;72.48;97082.31;4406194;32;33031;-91
2023/11/05 11:39:41;;;;;;;0.82;0.75;;;;;;;14.39;71.85;97073.47;4411050;32;33108;-91
2023/11/05 11:42:09;;;;;;;1.75;1.65;;;;;;;14.67;70.80;97068.00;4422869;32;33207;-91
2023/11/05 11:44:37;;;;;;;0.43;0.35;;;;;;;14.68;70.99;97069.69;4405586;32;32709;-91